sensor_id;sensor_type;location;lat;lon;timestamp;P1;durP1;ratioP1;P2;durP2;ratioP2
68212;SDS011;55035;47.792;8.724;2024-03-29T00:00:53;18.63;;;16.92;;
68212;SDS011;55035;47.792;8.724;2024-03-29T00:03:18;19.55;;;17.75;;
68212;SDS011;55035;47.792;8.724;2024-03-29T00:05:44;19.67;;;17.88;;
68212;SDS011;55035;47.792;8.724;2024-03-29T00:08:10;19.60;;;17.80;;
68212;SDS011;55035;47.792;8.724;2024-03-29T00:10:36;19.90;;;18.17;;
68212;SDS011;55035;47.792;8.724;2024-03-29T00:13:03;19.45;;;17.75;;
68212;SDS011;55035;47.792;8.724;2024-03-29T00:15:28;18.80;;;17.10;;
68212;SDS011;55035;47.792;8.724;2024-03-29T00:17:54;19.10;;;17.43;;
68212;SDS011;55035;47.792;8.724;2024-03-29T00:20:20;19.00;;;17.30;;
68212;SDS011;55035;47.792;8.724;2024-03-29T00:22:46;18.60;;;16.88;;
68212;SDS011;55035;47.792;8.724;2024-03-29T00:25:12;18.80;;;17.10;;
68212;SDS011;55035;47.792;8.724;2024-03-29T00:27:37;17.10;;;15.60;;
68212;SDS011;55035;47.792;8.724;2024-03-29T00:30:05;18.33;;;16.73;;
68212;SDS011;55035;47.792;8.724;2024-03-29T00:32:31;19.10;;;17.38;;
68212;SDS011;55035;47.792;8.724;2024-03-29T00:34:57;19.00;;;17.13;;
68212;SDS011;55035;47.792;8.724;2024-03-29T00:37:22;19.02;;;17.33;;
68212;SDS011;55035;47.792;8.724;2024-03-29T00:39:48;19.17;;;17.47;;
68212;SDS011;55035;47.792;8.724;2024-03-29T00:42:14;18.13;;;16.52;;
68212;SDS011;55035;47.792;8.724;2024-03-29T00:44:40;17.60;;;16.00;;
68212;SDS011;55035;47.792;8.724;2024-03-29T00:47:07;18.63;;;16.83;;
68212;SDS011;55035;47.792;8.724;2024-03-29T00:49:34;19.03;;;17.23;;
68212;SDS011;55035;47.792;8.724;2024-03-29T00:51:59;19.95;;;18.15;;
68212;SDS011;55035;47.792;8.724;2024-03-29T00:54:25;19.17;;;17.47;;
68212;SDS011;55035;47.792;8.724;2024-03-29T00:56:51;18.35;;;16.65;;
68212;SDS011;55035;47.792;8.724;2024-03-29T00:59:17;18.25;;;16.58;;
68212;SDS011;55035;47.792;8.724;2024-03-29T01:01:42;18.65;;;16.95;;
68212;SDS011;55035;47.792;8.724;2024-03-29T01:04:10;18.52;;;16.92;;
68212;SDS011;55035;47.792;8.724;2024-03-29T01:06:35;17.50;;;15.90;;
68212;SDS011;55035;47.792;8.724;2024-03-29T01:09:01;18.43;;;16.77;;
68212;SDS011;55035;47.792;8.724;2024-03-29T01:11:27;18.33;;;16.73;;
68212;SDS011;55035;47.792;8.724;2024-03-29T01:13:53;20.20;;;18.33;;
68212;SDS011;55035;47.792;8.724;2024-03-29T01:16:18;19.05;;;17.30;;
68212;SDS011;55035;47.792;8.724;2024-03-29T01:18:44;19.55;;;17.85;;
68212;SDS011;55035;47.792;8.724;2024-03-29T01:21:11;19.70;;;17.90;;
68212;SDS011;55035;47.792;8.724;2024-03-29T01:23:37;17.73;;;16.13;;
68212;SDS011;55035;47.792;8.724;2024-03-29T01:26:03;18.67;;;16.92;;
68212;SDS011;55035;47.792;8.724;2024-03-29T01:28:29;17.52;;;15.85;;
68212;SDS011;55035;47.792;8.724;2024-03-29T01:30:55;18.43;;;16.83;;
68212;SDS011;55035;47.792;8.724;2024-03-29T01:33:20;23.33;;;20.87;;
68212;SDS011;55035;47.792;8.724;2024-03-29T01:35:46;17.27;;;15.68;;
68212;SDS011;55035;47.792;8.724;2024-03-29T01:38:14;19.20;;;17.40;;
68212;SDS011;55035;47.792;8.724;2024-03-29T01:40:40;22.38;;;18.90;;
68212;SDS011;55035;47.792;8.724;2024-03-29T01:43:05;16.25;;;14.80;;
68212;SDS011;55035;47.792;8.724;2024-03-29T01:45:34;17.38;;;15.73;;
68212;SDS011;55035;47.792;8.724;2024-03-29T01:48:01;17.20;;;15.60;;
68212;SDS011;55035;47.792;8.724;2024-03-29T01:50:29;17.05;;;15.45;;
68212;SDS011;55035;47.792;8.724;2024-03-29T01:52:55;17.50;;;16.00;;
68212;SDS011;55035;47.792;8.724;2024-03-29T01:55:24;18.13;;;16.42;;
68212;SDS011;55035;47.792;8.724;2024-03-29T01:57:54;16.23;;;14.73;;
68212;SDS011;55035;47.792;8.724;2024-03-29T02:00:22;15.93;;;14.32;;
68212;SDS011;55035;47.792;8.724;2024-03-29T02:02:51;16.17;;;14.68;;
68212;SDS011;55035;47.792;8.724;2024-03-29T02:05:17;17.52;;;15.93;;
68212;SDS011;55035;47.792;8.724;2024-03-29T02:07:45;15.32;;;13.82;;
68212;SDS011;55035;47.792;8.724;2024-03-29T02:10:12;16.50;;;14.90;;
68212;SDS011;55035;47.792;8.724;2024-03-29T02:12:40;15.60;;;14.00;;
68212;SDS011;55035;47.792;8.724;2024-03-29T02:15:07;18.33;;;16.63;;
68212;SDS011;55035;47.792;8.724;2024-03-29T02:17:33;16.63;;;15.02;;
68212;SDS011;55035;47.792;8.724;2024-03-29T02:20:00;14.40;;;13.10;;
68212;SDS011;55035;47.792;8.724;2024-03-29T02:22:27;16.00;;;14.50;;
68212;SDS011;55035;47.792;8.724;2024-03-29T02:24:55;16.42;;;14.82;;
68212;SDS011;55035;47.792;8.724;2024-03-29T02:27:22;15.27;;;13.77;;
68212;SDS011;55035;47.792;8.724;2024-03-29T02:29:49;18.27;;;16.58;;
68212;SDS011;55035;47.792;8.724;2024-03-29T02:32:16;16.85;;;15.43;;
68212;SDS011;55035;47.792;8.724;2024-03-29T02:34:42;17.23;;;15.73;;
68212;SDS011;55035;47.792;8.724;2024-03-29T02:37:09;16.88;;;15.27;;
68212;SDS011;55035;47.792;8.724;2024-03-29T02:39:35;16.40;;;14.90;;
68212;SDS011;55035;47.792;8.724;2024-03-29T02:42:04;18.75;;;17.05;;
68212;SDS011;55035;47.792;8.724;2024-03-29T02:44:30;20.92;;;18.80;;
68212;SDS011;55035;47.792;8.724;2024-03-29T02:46:57;18.00;;;16.40;;
68212;SDS011;55035;47.792;8.724;2024-03-29T02:49:24;17.30;;;15.70;;
68212;SDS011;55035;47.792;8.724;2024-03-29T02:51:49;17.13;;;15.57;;
68212;SDS011;55035;47.792;8.724;2024-03-29T02:54:18;17.48;;;15.95;;
68212;SDS011;55035;47.792;8.724;2024-03-29T02:56:43;17.67;;;16.07;;
68212;SDS011;55035;47.792;8.724;2024-03-29T02:59:11;18.80;;;17.08;;
68212;SDS011;55035;47.792;8.724;2024-03-29T03:01:37;18.70;;;17.00;;
68212;SDS011;55035;47.792;8.724;2024-03-29T03:04:04;18.52;;;16.83;;
68212;SDS011;55035;47.792;8.724;2024-03-29T03:06:29;18.75;;;17.15;;
68212;SDS011;55035;47.792;8.724;2024-03-29T03:08:56;16.30;;;14.70;;
68212;SDS011;55035;47.792;8.724;2024-03-29T03:11:40;18.10;;;16.50;;
68212;SDS011;55035;47.792;8.724;2024-03-29T03:14:07;18.33;;;16.73;;
68212;SDS011;55035;47.792;8.724;2024-03-29T03:16:35;18.58;;;16.98;;
68212;SDS011;55035;47.792;8.724;2024-03-29T03:19:01;17.40;;;15.80;;
68212;SDS011;55035;47.792;8.724;2024-03-29T03:21:27;18.63;;;16.98;;
68212;SDS011;55035;47.792;8.724;2024-03-29T03:23:54;18.05;;;16.45;;
68212;SDS011;55035;47.792;8.724;2024-03-29T03:26:20;19.08;;;17.45;;
68212;SDS011;55035;47.792;8.724;2024-03-29T03:28:47;20.50;;;18.80;;
68212;SDS011;55035;47.792;8.724;2024-03-29T03:31:12;18.80;;;17.20;;
68212;SDS011;55035;47.792;8.724;2024-03-29T03:33:40;18.90;;;17.30;;
68212;SDS011;55035;47.792;8.724;2024-03-29T03:36:06;21.60;;;19.80;;
68212;SDS011;55035;47.792;8.724;2024-03-29T03:38:33;19.20;;;17.60;;
68212;SDS011;55035;47.792;8.724;2024-03-29T03:41:00;18.85;;;17.30;;
68212;SDS011;55035;47.792;8.724;2024-03-29T03:43:26;19.65;;;17.95;;
68212;SDS011;55035;47.792;8.724;2024-03-29T03:45:53;20.23;;;18.42;;
68212;SDS011;55035;47.792;8.724;2024-03-29T03:48:19;20.20;;;18.60;;
68212;SDS011;55035;47.792;8.724;2024-03-29T03:50:46;20.00;;;18.38;;
68212;SDS011;55035;47.792;8.724;2024-03-29T03:53:13;19.07;;;17.37;;
68212;SDS011;55035;47.792;8.724;2024-03-29T03:55:39;20.83;;;19.08;;
68212;SDS011;55035;47.792;8.724;2024-03-29T03:58:05;18.90;;;17.30;;
68212;SDS011;55035;47.792;8.724;2024-03-29T04:00:33;19.93;;;18.23;;
68212;SDS011;55035;47.792;8.724;2024-03-29T04:02:59;20.17;;;18.48;;
68212;SDS011;55035;47.792;8.724;2024-03-29T04:05:25;19.80;;;18.20;;
68212;SDS011;55035;47.792;8.724;2024-03-29T04:07:53;19.88;;;18.17;;
68212;SDS011;55035;47.792;8.724;2024-03-29T04:10:20;18.90;;;17.20;;
68212;SDS011;55035;47.792;8.724;2024-03-29T04:12:45;19.17;;;17.57;;
68212;SDS011;55035;47.792;8.724;2024-03-29T04:15:12;18.45;;;16.85;;
68212;SDS011;55035;47.792;8.724;2024-03-29T04:17:37;17.90;;;16.30;;
68212;SDS011;55035;47.792;8.724;2024-03-29T04:20:04;19.25;;;17.65;;
68212;SDS011;55035;47.792;8.724;2024-03-29T04:22:30;17.88;;;16.08;;
68212;SDS011;55035;47.792;8.724;2024-03-29T04:24:59;17.92;;;16.33;;
68212;SDS011;55035;47.792;8.724;2024-03-29T04:27:25;18.50;;;17.00;;
68212;SDS011;55035;47.792;8.724;2024-03-29T04:29:52;20.73;;;19.02;;
68212;SDS011;55035;47.792;8.724;2024-03-29T04:32:18;19.20;;;17.50;;
68212;SDS011;55035;47.792;8.724;2024-03-29T04:34:46;19.23;;;17.63;;
68212;SDS011;55035;47.792;8.724;2024-03-29T04:37:12;21.35;;;19.55;;
68212;SDS011;55035;47.792;8.724;2024-03-29T04:39:38;20.23;;;18.52;;
68212;SDS011;55035;47.792;8.724;2024-03-29T04:42:06;20.55;;;18.77;;
68212;SDS011;55035;47.792;8.724;2024-03-29T04:44:33;20.05;;;18.42;;
68212;SDS011;55035;47.792;8.724;2024-03-29T04:46:59;18.33;;;16.83;;
68212;SDS011;55035;47.792;8.724;2024-03-29T04:49:26;19.48;;;17.88;;
68212;SDS011;55035;47.792;8.724;2024-03-29T04:51:58;19.50;;;17.90;;
68212;SDS011;55035;47.792;8.724;2024-03-29T04:54:26;20.13;;;18.50;;
68212;SDS011;55035;47.792;8.724;2024-03-29T04:56:52;19.85;;;18.15;;
68212;SDS011;55035;47.792;8.724;2024-03-29T04:59:20;19.60;;;18.00;;
68212;SDS011;55035;47.792;8.724;2024-03-29T05:01:48;20.33;;;18.63;;
68212;SDS011;55035;47.792;8.724;2024-03-29T05:04:15;18.73;;;17.23;;
68212;SDS011;55035;47.792;8.724;2024-03-29T05:06:44;19.77;;;18.17;;
68212;SDS011;55035;47.792;8.724;2024-03-29T05:09:11;18.73;;;17.23;;
68212;SDS011;55035;47.792;8.724;2024-03-29T05:11:38;19.25;;;17.65;;
68212;SDS011;55035;47.792;8.724;2024-03-29T05:14:04;18.63;;;17.02;;
68212;SDS011;55035;47.792;8.724;2024-03-29T05:16:32;18.33;;;16.83;;
68212;SDS011;55035;47.792;8.724;2024-03-29T05:18:59;17.85;;;16.38;;
68212;SDS011;55035;47.792;8.724;2024-03-29T05:21:25;18.55;;;17.05;;
68212;SDS011;55035;47.792;8.724;2024-03-29T05:23:52;23.17;;;20.88;;
68212;SDS011;55035;47.792;8.724;2024-03-29T05:26:19;28.20;;;24.05;;
68212;SDS011;55035;47.792;8.724;2024-03-29T05:28:46;20.13;;;18.27;;
68212;SDS011;55035;47.792;8.724;2024-03-29T05:31:14;18.07;;;16.67;;
68212;SDS011;55035;47.792;8.724;2024-03-29T05:33:42;17.03;;;15.73;;
68212;SDS011;55035;47.792;8.724;2024-03-29T05:36:10;19.30;;;17.70;;
68212;SDS011;55035;47.792;8.724;2024-03-29T05:38:38;19.07;;;17.57;;
68212;SDS011;55035;47.792;8.724;2024-03-29T05:41:05;16.67;;;15.30;;
68212;SDS011;55035;47.792;8.724;2024-03-29T05:43:31;20.00;;;18.40;;
68212;SDS011;55035;47.792;8.724;2024-03-29T05:45:58;19.63;;;18.13;;
68212;SDS011;55035;47.792;8.724;2024-03-29T05:48:26;19.10;;;17.50;;
68212;SDS011;55035;47.792;8.724;2024-03-29T05:50:54;18.38;;;16.88;;
68212;SDS011;55035;47.792;8.724;2024-03-29T05:53:21;17.67;;;16.27;;
68212;SDS011;55035;47.792;8.724;2024-03-29T05:55:48;17.90;;;16.50;;
68212;SDS011;55035;47.792;8.724;2024-03-29T05:58:14;19.75;;;18.33;;
68212;SDS011;55035;47.792;8.724;2024-03-29T06:00:43;18.15;;;16.67;;
68212;SDS011;55035;47.792;8.724;2024-03-29T06:03:10;16.40;;;15.10;;
68212;SDS011;55035;47.792;8.724;2024-03-29T06:05:36;17.37;;;16.07;;
68212;SDS011;55035;47.792;8.724;2024-03-29T06:08:05;17.17;;;15.77;;
68212;SDS011;55035;47.792;8.724;2024-03-29T06:10:31;17.50;;;16.20;;
68212;SDS011;55035;47.792;8.724;2024-03-29T06:12:58;18.03;;;16.60;;
68212;SDS011;55035;47.792;8.724;2024-03-29T06:15:32;17.77;;;16.38;;
68212;SDS011;55035;47.792;8.724;2024-03-29T06:18:16;16.77;;;15.37;;
68212;SDS011;55035;47.792;8.724;2024-03-29T06:20:44;16.77;;;15.37;;
68212;SDS011;55035;47.792;8.724;2024-03-29T06:23:12;15.88;;;14.48;;
68212;SDS011;55035;47.792;8.724;2024-03-29T06:25:39;15.30;;;14.00;;
68212;SDS011;55035;47.792;8.724;2024-03-29T06:28:06;12.68;;;11.57;;
68212;SDS011;55035;47.792;8.724;2024-03-29T06:30:32;10.60;;;9.60;;
68212;SDS011;55035;47.792;8.724;2024-03-29T06:32:59;11.88;;;7.78;;
68212;SDS011;55035;47.792;8.724;2024-03-29T06:35:27;8.80;;;4.22;;
68212;SDS011;55035;47.792;8.724;2024-03-29T06:37:54;6.38;;;2.13;;
68212;SDS011;55035;47.792;8.724;2024-03-29T06:40:23;5.43;;;1.83;;
68212;SDS011;55035;47.792;8.724;2024-03-29T06:42:49;5.10;;;1.50;;
68212;SDS011;55035;47.792;8.724;2024-03-29T06:45:16;7.03;;;1.73;;
68212;SDS011;55035;47.792;8.724;2024-03-29T06:47:43;5.55;;;1.60;;
68212;SDS011;55035;47.792;8.724;2024-03-29T06:50:10;6.25;;;2.30;;
68212;SDS011;55035;47.792;8.724;2024-03-29T06:52:36;5.20;;;1.45;;
68212;SDS011;55035;47.792;8.724;2024-03-29T06:55:03;5.40;;;1.50;;
68212;SDS011;55035;47.792;8.724;2024-03-29T06:57:33;7.53;;;3.60;;
68212;SDS011;55035;47.792;8.724;2024-03-29T07:00:01;9.90;;;6.00;;
68212;SDS011;55035;47.792;8.724;2024-03-29T07:02:28;7.03;;;3.33;;
68212;SDS011;55035;47.792;8.724;2024-03-29T07:04:55;6.35;;;3.53;;
68212;SDS011;55035;47.792;8.724;2024-03-29T07:07:21;7.20;;;4.30;;
68212;SDS011;55035;47.792;8.724;2024-03-29T07:09:48;6.40;;;3.60;;
68212;SDS011;55035;47.792;8.724;2024-03-29T07:12:15;6.50;;;3.80;;
68212;SDS011;55035;47.792;8.724;2024-03-29T07:14:43;5.70;;;2.17;;
68212;SDS011;55035;47.792;8.724;2024-03-29T07:17:09;5.35;;;1.60;;
68212;SDS011;55035;47.792;8.724;2024-03-29T07:19:36;5.93;;;1.20;;
68212;SDS011;55035;47.792;8.724;2024-03-29T07:22:03;4.85;;;1.17;;
68212;SDS011;55035;47.792;8.724;2024-03-29T07:24:30;4.72;;;1.15;;
68212;SDS011;55035;47.792;8.724;2024-03-29T07:26:56;6.55;;;2.15;;
68212;SDS011;55035;47.792;8.724;2024-03-29T07:29:23;4.90;;;1.42;;
68212;SDS011;55035;47.792;8.724;2024-03-29T07:31:51;5.00;;;1.10;;
68212;SDS011;55035;47.792;8.724;2024-03-29T07:34:18;4.30;;;0.90;;
68212;SDS011;55035;47.792;8.724;2024-03-29T07:36:45;5.93;;;1.38;;
68212;SDS011;55035;47.792;8.724;2024-03-29T07:39:12;4.35;;;0.80;;
68212;SDS011;55035;47.792;8.724;2024-03-29T07:41:39;4.10;;;0.80;;
68212;SDS011;55035;47.792;8.724;2024-03-29T07:44:05;4.28;;;0.88;;
68212;SDS011;55035;47.792;8.724;2024-03-29T07:46:34;4.53;;;0.80;;
68212;SDS011;55035;47.792;8.724;2024-03-29T07:49:02;4.47;;;1.10;;
68212;SDS011;55035;47.792;8.724;2024-03-29T07:51:28;4.47;;;0.90;;
68212;SDS011;55035;47.792;8.724;2024-03-29T07:53:55;4.07;;;0.90;;
68212;SDS011;55035;47.792;8.724;2024-03-29T07:56:22;3.90;;;0.90;;
68212;SDS011;55035;47.792;8.724;2024-03-29T07:58:51;4.03;;;0.80;;
68212;SDS011;55035;47.792;8.724;2024-03-29T08:01:19;7.35;;;1.58;;
68212;SDS011;55035;47.792;8.724;2024-03-29T08:03:46;6.90;;;1.67;;
68212;SDS011;55035;47.792;8.724;2024-03-29T08:06:14;9.93;;;4.20;;
68212;SDS011;55035;47.792;8.724;2024-03-29T08:08:42;4.82;;;1.02;;
68212;SDS011;55035;47.792;8.724;2024-03-29T08:11:09;4.97;;;1.20;;
68212;SDS011;55035;47.792;8.724;2024-03-29T08:13:37;6.20;;;1.40;;
68212;SDS011;55035;47.792;8.724;2024-03-29T08:16:04;4.57;;;1.00;;
68212;SDS011;55035;47.792;8.724;2024-03-29T08:18:31;5.00;;;1.15;;
68212;SDS011;55035;47.792;8.724;2024-03-29T08:20:57;5.15;;;1.45;;
68212;SDS011;55035;47.792;8.724;2024-03-29T08:23:26;5.35;;;1.20;;
68212;SDS011;55035;47.792;8.724;2024-03-29T08:25:52;4.00;;;1.00;;
68212;SDS011;55035;47.792;8.724;2024-03-29T08:28:21;4.47;;;1.00;;
68212;SDS011;55035;47.792;8.724;2024-03-29T08:30:56;5.75;;;1.45;;
68212;SDS011;55035;47.792;8.724;2024-03-29T08:33:23;4.80;;;1.10;;
68212;SDS011;55035;47.792;8.724;2024-03-29T08:35:50;5.13;;;1.15;;
68212;SDS011;55035;47.792;8.724;2024-03-29T08:38:16;4.28;;;0.90;;
68212;SDS011;55035;47.792;8.724;2024-03-29T08:40:44;4.53;;;1.17;;
68212;SDS011;55035;47.792;8.724;2024-03-29T08:43:13;4.80;;;0.93;;
68212;SDS011;55035;47.792;8.724;2024-03-29T08:45:39;5.10;;;1.07;;
68212;SDS011;55035;47.792;8.724;2024-03-29T08:48:06;4.55;;;1.00;;
68212;SDS011;55035;47.792;8.724;2024-03-29T08:50:33;4.00;;;0.80;;
68212;SDS011;55035;47.792;8.724;2024-03-29T08:53:00;5.82;;;1.10;;
68212;SDS011;55035;47.792;8.724;2024-03-29T08:55:26;4.43;;;0.90;;
68212;SDS011;55035;47.792;8.724;2024-03-29T08:57:54;5.60;;;1.00;;
68212;SDS011;55035;47.792;8.724;2024-03-29T09:00:21;5.40;;;1.10;;
68212;SDS011;55035;47.792;8.724;2024-03-29T09:02:48;4.82;;;1.30;;
68212;SDS011;55035;47.792;8.724;2024-03-29T09:05:14;4.95;;;1.30;;
68212;SDS011;55035;47.792;8.724;2024-03-29T09:07:41;4.55;;;1.10;;
68212;SDS011;55035;47.792;8.724;2024-03-29T09:10:08;4.80;;;1.02;;
68212;SDS011;55035;47.792;8.724;2024-03-29T09:12:34;4.63;;;1.20;;
68212;SDS011;55035;47.792;8.724;2024-03-29T09:15:03;4.70;;;1.10;;
68212;SDS011;55035;47.792;8.724;2024-03-29T09:17:33;5.20;;;1.17;;
68212;SDS011;55035;47.792;8.724;2024-03-29T09:20:00;4.90;;;1.30;;
68212;SDS011;55035;47.792;8.724;2024-03-29T09:22:28;6.23;;;1.53;;
68212;SDS011;55035;47.792;8.724;2024-03-29T09:24:54;5.15;;;1.40;;
68212;SDS011;55035;47.792;8.724;2024-03-29T09:27:21;4.35;;;0.98;;
68212;SDS011;55035;47.792;8.724;2024-03-29T09:29:48;4.55;;;1.00;;
68212;SDS011;55035;47.792;8.724;2024-03-29T09:32:16;4.47;;;1.10;;
68212;SDS011;55035;47.792;8.724;2024-03-29T09:34:45;4.47;;;1.00;;
68212;SDS011;55035;47.792;8.724;2024-03-29T09:37:11;4.97;;;1.10;;
68212;SDS011;55035;47.792;8.724;2024-03-29T09:39:38;4.82;;;1.20;;
68212;SDS011;55035;47.792;8.724;2024-03-29T09:42:05;5.53;;;1.45;;
68212;SDS011;55035;47.792;8.724;2024-03-29T09:44:33;4.90;;;1.20;;
68212;SDS011;55035;47.792;8.724;2024-03-29T09:47:02;4.85;;;1.40;;
68212;SDS011;55035;47.792;8.724;2024-03-29T09:49:30;4.70;;;1.30;;
68212;SDS011;55035;47.792;8.724;2024-03-29T09:51:57;4.80;;;1.40;;
68212;SDS011;55035;47.792;8.724;2024-03-29T09:54:25;5.50;;;1.60;;
68212;SDS011;55035;47.792;8.724;2024-03-29T09:56:52;5.50;;;1.70;;
68212;SDS011;55035;47.792;8.724;2024-03-29T09:59:19;5.28;;;1.50;;
68212;SDS011;55035;47.792;8.724;2024-03-29T10:01:46;5.50;;;1.33;;
68212;SDS011;55035;47.792;8.724;2024-03-29T10:04:14;4.97;;;1.33;;
68212;SDS011;55035;47.792;8.724;2024-03-29T10:06:44;5.25;;;1.50;;
68212;SDS011;55035;47.792;8.724;2024-03-29T10:09:11;4.72;;;1.42;;
68212;SDS011;55035;47.792;8.724;2024-03-29T10:11:38;4.53;;;1.48;;
68212;SDS011;55035;47.792;8.724;2024-03-29T10:14:05;4.38;;;1.20;;
68212;SDS011;55035;47.792;8.724;2024-03-29T10:16:33;5.43;;;1.27;;
68212;SDS011;55035;47.792;8.724;2024-03-29T10:18:59;5.32;;;1.38;;
68212;SDS011;55035;47.792;8.724;2024-03-29T10:21:26;5.00;;;1.30;;
68212;SDS011;55035;47.792;8.724;2024-03-29T10:23:54;5.40;;;1.03;;
68212;SDS011;55035;47.792;8.724;2024-03-29T10:26:21;5.72;;;1.70;;
68212;SDS011;55035;47.792;8.724;2024-03-29T10:28:47;4.55;;;1.00;;
68212;SDS011;55035;47.792;8.724;2024-03-29T10:31:14;5.17;;;1.20;;
68212;SDS011;55035;47.792;8.724;2024-03-29T10:33:42;4.43;;;1.00;;
68212;SDS011;55035;47.792;8.724;2024-03-29T10:36:08;6.20;;;1.10;;
68212;SDS011;55035;47.792;8.724;2024-03-29T10:38:37;11.07;;;4.80;;
68212;SDS011;55035;47.792;8.724;2024-03-29T10:41:05;4.97;;;1.20;;
68212;SDS011;55035;47.792;8.724;2024-03-29T10:43:34;4.70;;;1.00;;
68212;SDS011;55035;47.792;8.724;2024-03-29T10:46:00;4.50;;;0.90;;
68212;SDS011;55035;47.792;8.724;2024-03-29T10:48:27;4.50;;;1.10;;
68212;SDS011;55035;47.792;8.724;2024-03-29T10:50:54;4.00;;;1.00;;
68212;SDS011;55035;47.792;8.724;2024-03-29T10:53:23;4.80;;;1.10;;
68212;SDS011;55035;47.792;8.724;2024-03-29T10:55:52;5.50;;;1.20;;
68212;SDS011;55035;47.792;8.724;2024-03-29T10:58:20;4.47;;;1.00;;
68212;SDS011;55035;47.792;8.724;2024-03-29T11:00:50;5.10;;;1.10;;
68212;SDS011;55035;47.792;8.724;2024-03-29T11:03:23;4.53;;;1.00;;
68212;SDS011;55035;47.792;8.724;2024-03-29T11:05:52;4.40;;;1.20;;
68212;SDS011;55035;47.792;8.724;2024-03-29T11:08:22;4.88;;;1.20;;
68212;SDS011;55035;47.792;8.724;2024-03-29T11:10:49;4.63;;;1.13;;
68212;SDS011;55035;47.792;8.724;2024-03-29T11:13:19;4.47;;;1.25;;
68212;SDS011;55035;47.792;8.724;2024-03-29T11:15:47;5.28;;;1.20;;
68212;SDS011;55035;47.792;8.724;2024-03-29T11:18:14;4.80;;;1.38;;
68212;SDS011;55035;47.792;8.724;2024-03-29T11:20:42;5.93;;;1.92;;
68212;SDS011;55035;47.792;8.724;2024-03-29T11:23:13;5.10;;;1.10;;
68212;SDS011;55035;47.792;8.724;2024-03-29T11:25:41;4.80;;;1.10;;
68212;SDS011;55035;47.792;8.724;2024-03-29T11:28:08;4.97;;;1.20;;
68212;SDS011;55035;47.792;8.724;2024-03-29T11:30:41;4.70;;;1.30;;
68212;SDS011;55035;47.792;8.724;2024-03-29T11:35:51;4.85;;;1.25;;
68212;SDS011;55035;47.792;8.724;2024-03-29T11:38:18;4.47;;;1.30;;
68212;SDS011;55035;47.792;8.724;2024-03-29T11:40:53;4.60;;;1.30;;
68212;SDS011;55035;47.792;8.724;2024-03-29T11:43:19;4.53;;;1.13;;
68212;SDS011;55035;47.792;8.724;2024-03-29T11:45:47;5.70;;;1.45;;
68212;SDS011;55035;47.792;8.724;2024-03-29T11:48:17;5.50;;;1.20;;
68212;SDS011;55035;47.792;8.724;2024-03-29T11:50:47;4.68;;;1.10;;
68212;SDS011;55035;47.792;8.724;2024-03-29T11:53:15;4.60;;;1.05;;
68212;SDS011;55035;47.792;8.724;2024-03-29T11:55:42;4.68;;;0.90;;
68212;SDS011;55035;47.792;8.724;2024-03-29T11:58:09;4.70;;;0.80;;
68212;SDS011;55035;47.792;8.724;2024-03-29T12:00:36;4.15;;;0.80;;
68212;SDS011;55035;47.792;8.724;2024-03-29T12:03:04;4.30;;;0.80;;
68212;SDS011;55035;47.792;8.724;2024-03-29T12:05:31;4.07;;;0.85;;
68212;SDS011;55035;47.792;8.724;2024-03-29T12:07:58;4.30;;;0.80;;
68212;SDS011;55035;47.792;8.724;2024-03-29T12:10:27;4.10;;;0.90;;
68212;SDS011;55035;47.792;8.724;2024-03-29T12:12:55;3.65;;;0.70;;
68212;SDS011;55035;47.792;8.724;2024-03-29T12:15:23;4.18;;;0.73;;
68212;SDS011;55035;47.792;8.724;2024-03-29T12:17:53;4.28;;;0.70;;
68212;SDS011;55035;47.792;8.724;2024-03-29T12:20:19;3.70;;;0.70;;
68212;SDS011;55035;47.792;8.724;2024-03-29T12:22:46;5.18;;;1.10;;
68212;SDS011;55035;47.792;8.724;2024-03-29T12:25:13;4.40;;;0.77;;
68212;SDS011;55035;47.792;8.724;2024-03-29T12:27:43;4.60;;;0.93;;
68212;SDS011;55035;47.792;8.724;2024-03-29T12:30:11;3.77;;;0.80;;
68212;SDS011;55035;47.792;8.724;2024-03-29T12:32:38;3.67;;;0.70;;
68212;SDS011;55035;47.792;8.724;2024-03-29T12:35:08;4.00;;;0.70;;
68212;SDS011;55035;47.792;8.724;2024-03-29T12:37:36;4.22;;;0.60;;
68212;SDS011;55035;47.792;8.724;2024-03-29T12:40:04;3.10;;;0.70;;
68212;SDS011;55035;47.792;8.724;2024-03-29T12:42:37;3.40;;;0.73;;
68212;SDS011;55035;47.792;8.724;2024-03-29T12:45:05;3.20;;;0.65;;
68212;SDS011;55035;47.792;8.724;2024-03-29T12:47:32;4.38;;;0.70;;
68212;SDS011;55035;47.792;8.724;2024-03-29T12:50:00;4.82;;;0.80;;
68212;SDS011;55035;47.792;8.724;2024-03-29T12:52:27;3.67;;;0.63;;
68212;SDS011;55035;47.792;8.724;2024-03-29T12:54:53;3.03;;;0.60;;
68212;SDS011;55035;47.792;8.724;2024-03-29T12:57:20;3.40;;;0.70;;
68212;SDS011;55035;47.792;8.724;2024-03-29T12:59:47;4.47;;;0.80;;
68212;SDS011;55035;47.792;8.724;2024-03-29T13:02:15;3.97;;;0.60;;
68212;SDS011;55035;47.792;8.724;2024-03-29T13:04:41;3.72;;;0.73;;
68212;SDS011;55035;47.792;8.724;2024-03-29T13:07:10;3.53;;;0.73;;
68212;SDS011;55035;47.792;8.724;2024-03-29T13:09:39;3.92;;;1.10;;
68212;SDS011;55035;47.792;8.724;2024-03-29T13:12:06;3.63;;;0.87;;
68212;SDS011;55035;47.792;8.724;2024-03-29T13:14:33;3.30;;;0.60;;
68212;SDS011;55035;47.792;8.724;2024-03-29T13:17:00;2.97;;;0.50;;
68212;SDS011;55035;47.792;8.724;2024-03-29T13:19:28;4.00;;;0.70;;
68212;SDS011;55035;47.792;8.724;2024-03-29T13:21:54;3.33;;;0.63;;
68212;SDS011;55035;47.792;8.724;2024-03-29T13:24:21;3.58;;;0.70;;
68212;SDS011;55035;47.792;8.724;2024-03-29T13:26:47;3.42;;;0.63;;
68212;SDS011;55035;47.792;8.724;2024-03-29T13:29:14;3.38;;;0.60;;
68212;SDS011;55035;47.792;8.724;2024-03-29T13:31:41;3.65;;;0.60;;
68212;SDS011;55035;47.792;8.724;2024-03-29T13:34:08;3.90;;;0.70;;
68212;SDS011;55035;47.792;8.724;2024-03-29T13:36:39;4.50;;;0.70;;
68212;SDS011;55035;47.792;8.724;2024-03-29T13:39:07;3.23;;;0.50;;
68212;SDS011;55035;47.792;8.724;2024-03-29T13:41:34;3.20;;;0.60;;
68212;SDS011;55035;47.792;8.724;2024-03-29T13:44:01;4.03;;;0.80;;
68212;SDS011;55035;47.792;8.724;2024-03-29T13:46:31;4.30;;;0.80;;
68212;SDS011;55035;47.792;8.724;2024-03-29T13:48:57;4.60;;;0.82;;
68212;SDS011;55035;47.792;8.724;2024-03-29T13:51:24;4.90;;;0.95;;
68212;SDS011;55035;47.792;8.724;2024-03-29T13:53:52;4.97;;;1.20;;
68212;SDS011;55035;47.792;8.724;2024-03-29T13:56:19;5.00;;;0.90;;
68212;SDS011;55035;47.792;8.724;2024-03-29T13:58:46;4.60;;;0.90;;
68212;SDS011;55035;47.792;8.724;2024-03-29T14:01:12;5.10;;;0.93;;
68212;SDS011;55035;47.792;8.724;2024-03-29T14:03:39;3.90;;;0.90;;
68212;SDS011;55035;47.792;8.724;2024-03-29T14:06:06;3.80;;;1.00;;
68212;SDS011;55035;47.792;8.724;2024-03-29T14:08:33;4.20;;;0.80;;
68212;SDS011;55035;47.792;8.724;2024-03-29T14:11:01;4.35;;;0.85;;
68212;SDS011;55035;47.792;8.724;2024-03-29T14:13:27;4.03;;;0.90;;
68212;SDS011;55035;47.792;8.724;2024-03-29T14:15:54;3.83;;;0.80;;
68212;SDS011;55035;47.792;8.724;2024-03-29T14:18:21;4.10;;;0.73;;
68212;SDS011;55035;47.792;8.724;2024-03-29T14:20:48;3.80;;;0.70;;
68212;SDS011;55035;47.792;8.724;2024-03-29T14:23:16;4.40;;;0.80;;
68212;SDS011;55035;47.792;8.724;2024-03-29T14:25:44;4.78;;;1.00;;
68212;SDS011;55035;47.792;8.724;2024-03-29T14:28:12;4.47;;;0.80;;
68212;SDS011;55035;47.792;8.724;2024-03-29T14:30:39;4.03;;;0.90;;
68212;SDS011;55035;47.792;8.724;2024-03-29T14:33:06;4.05;;;0.80;;
68212;SDS011;55035;47.792;8.724;2024-03-29T14:35:33;4.05;;;0.73;;
68212;SDS011;55035;47.792;8.724;2024-03-29T14:38:00;4.57;;;0.80;;